createdAt,value
2023-03-16T00:02:28.461Z,3.10
2023-03-16T00:07:29.672Z,2.95
2023-03-16T00:12:34.107Z,3.45
2023-03-16T00:17:34.934Z,4.43
2023-03-16T00:22:35.782Z,3.85
2023-03-16T00:27:37.006Z,3.80
2023-03-16T00:32:38.436Z,3.97
2023-03-16T00:37:39.675Z,4.18
2023-03-16T00:42:41.101Z,3.97
2023-03-16T00:47:41.872Z,3.70
2023-03-16T00:52:43.007Z,4.25
2023-03-16T00:57:44.169Z,3.80
2023-03-16T01:02:45.457Z,3.85
2023-03-16T01:07:46.248Z,4.22
2023-03-16T01:12:47.221Z,4.40
2023-03-16T01:17:48.340Z,5.80
2023-03-16T01:22:49.194Z,4.50
2023-03-16T01:27:51.372Z,3.83
2023-03-16T01:32:53.036Z,4.40
2023-03-16T01:37:53.927Z,5.05
2023-03-16T01:43:02.124Z,4.70
2023-03-16T01:48:07.158Z,3.72
2023-03-16T01:53:09.144Z,4.90
2023-03-16T01:58:10.812Z,4.87
2023-03-16T02:03:15.814Z,4.85
2023-03-16T02:09:02.112Z,4.53
2023-03-16T02:14:08.689Z,4.65
2023-03-16T02:19:24.972Z,5.05
2023-03-16T02:24:26.020Z,6.18
2023-03-16T02:30:07.027Z,4.82
2023-03-16T02:35:14.771Z,5.60
2023-03-16T02:40:23.471Z,5.32
2023-03-16T02:45:28.416Z,5.55
2023-03-16T02:50:30.182Z,5.37
2023-03-16T02:55:31.069Z,6.47
2023-03-16T03:00:31.955Z,5.07
2023-03-16T03:05:33.044Z,5.75
2023-03-16T03:10:34.120Z,5.37
2023-03-16T03:15:35.052Z,5.68
2023-03-16T03:20:40.539Z,5.60
2023-03-16T03:25:41.594Z,5.47
2023-03-16T03:30:42.498Z,5.32
2023-03-16T03:35:44.341Z,5.10
2023-03-16T03:40:47.647Z,5.57
2023-03-16T03:45:48.589Z,5.37
2023-03-16T03:50:50.406Z,5.78
2023-03-16T03:56:09.448Z,6.12
2023-03-16T04:01:11.423Z,7.00
2023-03-16T04:06:12.405Z,6.45
2023-03-16T04:11:13.322Z,5.97
2023-03-16T04:16:15.436Z,6.97
2023-03-16T04:21:17.745Z,6.53
2023-03-16T04:26:21.093Z,5.97
2023-03-16T04:31:22.758Z,5.90
2023-03-16T04:36:24.426Z,6.55
2023-03-16T04:41:25.690Z,6.47
2023-03-16T04:46:35.147Z,7.05
2023-03-16T04:51:40.029Z,7.10
2023-03-16T04:56:47.442Z,7.28
2023-03-16T05:02:01.055Z,7.68
2023-03-16T05:07:02.432Z,7.40
2023-03-16T05:12:07.656Z,7.70
2023-03-16T05:17:09.393Z,8.43
2023-03-16T05:22:10.817Z,8.15
2023-03-16T05:27:12.193Z,8.05
2023-03-16T05:32:13.143Z,9.23
2023-03-16T05:37:15.075Z,12.02
2023-03-16T05:42:15.937Z,11.18
2023-03-16T05:47:23.693Z,11.18
2023-03-16T05:52:28.524Z,12.93
2023-03-16T05:57:29.875Z,12.48
2023-03-16T06:02:32.917Z,12.95
2023-03-16T06:07:34.901Z,13.13
2023-03-16T06:12:35.820Z,15.10
2023-03-16T06:17:38.786Z,15.70
2023-03-16T06:22:42.157Z,15.80
2023-03-16T06:27:43.076Z,16.57
2023-03-16T06:37:48.045Z,13.62
2023-03-16T06:43:09.467Z,14.60
2023-03-16T06:48:10.456Z,18.33
2023-03-16T06:53:11.816Z,17.25
2023-03-16T06:58:13.691Z,18.00
2023-03-16T07:03:14.643Z,18.45
2023-03-16T07:08:20.332Z,18.25
2023-03-16T07:13:21.119Z,15.80
2023-03-16T07:18:25.140Z,15.48
2023-03-16T07:23:26.402Z,17.17
2023-03-16T07:28:31.482Z,18.25
2023-03-16T07:33:34.032Z,17.00
2023-03-16T07:38:37.570Z,18.42
2023-03-16T07:43:39.174Z,17.83
2023-03-16T07:48:44.319Z,16.33
2023-03-16T07:53:46.424Z,16.83
2023-03-16T07:58:51.422Z,16.85
2023-03-16T08:03:52.891Z,17.25
2023-03-16T08:08:54.392Z,15.45
2023-03-16T08:14:04.661Z,16.50
2023-03-16T08:19:22.223Z,16.87
2023-03-16T08:24:23.442Z,16.83
2023-03-16T08:29:26.032Z,16.40
2023-03-16T08:34:28.086Z,15.60
2023-03-16T08:39:29.656Z,16.55
2023-03-16T08:44:32.235Z,17.08
2023-03-16T08:49:34.066Z,16.00
2023-03-16T08:54:59.705Z,16.00
2023-03-16T09:00:11.834Z,16.25
2023-03-16T09:05:20.964Z,15.15
2023-03-16T09:10:22.766Z,14.40
2023-03-16T09:15:23.574Z,16.80
2023-03-16T09:20:29.731Z,16.02
2023-03-16T09:25:32.018Z,16.23
2023-03-16T09:30:33.959Z,16.60
2023-03-16T09:35:36.427Z,15.90
2023-03-16T09:40:37.661Z,16.00
2023-03-16T09:47:08.268Z,14.98
2023-03-16T09:52:37.590Z,14.70
2023-03-16T09:58:19.051Z,15.23
2023-03-16T10:04:16.355Z,14.27
2023-03-16T10:15:34.945Z,14.10
2023-03-16T10:20:35.782Z,13.75
2023-03-16T10:25:50.788Z,13.43
2023-03-16T10:30:54.476Z,13.55
2023-03-16T10:36:43.491Z,15.20
2023-03-16T10:41:54.195Z,12.95
2023-03-16T10:47:07.537Z,13.65
2023-03-16T10:57:33.265Z,13.62
2023-03-16T11:02:34.629Z,13.93
2023-03-16T11:07:36.441Z,13.88
2023-03-16T11:12:37.513Z,13.18
2023-03-16T11:17:45.292Z,11.30
2023-03-16T11:22:47.967Z,12.23
2023-03-16T11:27:56.958Z,12.88
2023-03-16T11:32:59.739Z,12.68
2023-03-16T11:38:16.805Z,12.18
2023-03-16T11:43:44.394Z,12.68
2023-03-16T11:51:03.125Z,12.05
2023-03-16T11:56:53.994Z,13.73
2023-03-16T12:03:57.886Z,10.52
2023-03-16T12:09:51.983Z,11.10
2023-03-16T12:15:47.316Z,9.57
2023-03-16T12:21:39.962Z,10.05
2023-03-16T12:26:42.684Z,10.25
2023-03-16T12:34:59.235Z,10.48
2023-03-16T12:40:35.698Z,10.00
2023-03-16T12:45:48.409Z,9.60
2023-03-16T12:50:54.043Z,8.73
2023-03-16T12:55:56.581Z,10.27
2023-03-16T13:00:59.381Z,9.10
2023-03-16T13:06:02.687Z,7.72
2023-03-16T13:16:27.607Z,8.45
2023-03-16T13:21:40.842Z,8.85
2023-03-16T13:27:01.986Z,9.23
2023-03-16T13:32:08.058Z,9.55
2023-03-16T13:37:14.213Z,8.07
2023-03-16T13:42:19.545Z,6.53
2023-03-16T13:47:20.636Z,6.95
2023-03-16T13:52:30.180Z,6.50
2023-03-16T13:57:41.297Z,7.18
2023-03-16T14:02:43.433Z,6.60
2023-03-16T14:07:47.987Z,7.18
2023-03-16T14:13:07.574Z,7.12
2023-03-16T14:18:20.618Z,6.95
2023-03-16T14:23:33.339Z,5.68
2023-03-16T14:28:34.106Z,6.87
2023-03-16T14:33:39.195Z,6.35
2023-03-16T14:38:42.890Z,6.97
2023-03-16T14:43:54.744Z,6.55
2023-03-16T14:49:07.022Z,5.80
2023-03-16T14:54:12.666Z,6.50
2023-03-16T14:59:13.610Z,5.70
2023-03-16T15:04:18.561Z,5.07
2023-03-16T15:09:38.162Z,5.87
2023-03-16T15:14:57.751Z,5.12
2023-03-16T15:19:59.006Z,5.00
2023-03-16T15:25:28.156Z,5.55
2023-03-16T15:30:29.921Z,5.30
2023-03-16T15:35:31.438Z,5.00
2023-03-16T15:40:34.626Z,4.82
2023-03-16T15:50:40.159Z,6.00
2023-03-16T15:55:44.206Z,5.18
2023-03-16T16:00:46.200Z,6.05
2023-03-16T16:05:47.876Z,6.78
2023-03-16T16:10:49.894Z,5.47
2023-03-16T16:15:51.456Z,6.05
2023-03-16T16:20:53.199Z,6.18
2023-03-16T16:25:57.773Z,6.55
2023-03-16T16:31:00.967Z,6.82
2023-03-16T16:41:08.532Z,5.90
2023-03-16T16:46:15.826Z,7.20
2023-03-16T16:51:22.553Z,6.30
2023-03-16T16:56:32.384Z,6.35
2023-03-16T17:01:34.234Z,6.32
2023-03-16T17:06:35.030Z,6.20
2023-03-16T17:11:36.787Z,5.93
2023-03-16T17:16:38.944Z,5.60
2023-03-16T17:21:43.348Z,6.07
2023-03-16T17:26:48.574Z,5.62
2023-03-16T17:31:49.772Z,6.18
2023-03-16T17:36:51.685Z,6.25
2023-03-16T17:41:58.417Z,5.78
2023-03-16T17:46:59.494Z,5.82
2023-03-16T17:52:00.578Z,6.12
2023-03-16T17:57:01.565Z,5.80
2023-03-16T18:02:02.660Z,6.10
2023-03-16T18:07:04.426Z,5.85
2023-03-16T18:12:05.701Z,6.37
2023-03-16T18:17:32.933Z,6.45
2023-03-16T18:22:34.270Z,5.55
2023-03-16T18:27:35.281Z,5.35
2023-03-16T18:32:36.103Z,4.80
2023-03-16T18:37:37.699Z,5.22
2023-03-16T18:42:38.757Z,5.35
2023-03-16T18:47:43.084Z,4.60
2023-03-16T18:52:43.887Z,5.03
2023-03-16T18:57:51.100Z,4.37
2023-03-16T19:02:55.484Z,4.90
2023-03-16T19:07:56.373Z,4.03
2023-03-16T19:12:58.482Z,4.43
2023-03-16T19:18:00.045Z,4.32
2023-03-16T19:23:10.067Z,4.40
2023-03-16T19:28:15.414Z,3.80
2023-03-16T19:33:22.445Z,3.92
2023-03-16T19:38:24.378Z,3.75
2023-03-16T19:43:27.431Z,3.87
2023-03-16T19:48:32.151Z,3.47
2023-03-16T19:53:32.956Z,3.67
2023-03-16T19:58:41.882Z,3.45
2023-03-16T20:03:44.272Z,3.35
2023-03-16T20:08:46.286Z,3.57
2023-03-16T20:13:47.625Z,3.05
2023-03-16T20:18:54.069Z,3.03
2023-03-16T20:23:55.938Z,3.12
2023-03-16T20:28:58.538Z,3.22
2023-03-16T20:33:59.448Z,2.87
2023-03-16T20:39:00.332Z,3.08
2023-03-16T20:44:02.563Z,3.00
2023-03-16T20:49:05.257Z,3.05
2023-03-16T20:54:06.591Z,2.80
2023-03-16T20:59:22.803Z,3.03
2023-03-16T21:04:27.478Z,2.78
2023-03-16T21:09:31.127Z,2.90
2023-03-16T21:14:32.776Z,2.97
2023-03-16T21:19:34.183Z,2.80
2023-03-16T21:24:36.344Z,3.17
2023-03-16T21:29:37.351Z,5.70
2023-03-16T21:34:38.182Z,7.35
2023-03-16T21:39:39.235Z,14.15
2023-03-16T21:44:40.012Z,12.13
2023-03-16T21:49:40.808Z,11.10
2023-03-16T21:54:41.584Z,8.32
2023-03-16T21:59:42.514Z,9.55
2023-03-16T22:04:43.508Z,9.10
2023-03-16T22:09:45.280Z,9.60
2023-03-16T22:14:46.837Z,15.85
2023-03-16T22:19:47.655Z,14.45
2023-03-16T22:24:48.492Z,11.68
2023-03-16T22:29:50.593Z,6.85
2023-03-16T22:34:55.287Z,6.93
2023-03-16T22:39:57.976Z,7.68
2023-03-16T22:44:59.957Z,9.07
2023-03-16T22:50:01.187Z,4.93
2023-03-16T22:55:04.080Z,5.22
2023-03-16T23:00:06.480Z,5.97
2023-03-16T23:05:25.267Z,12.25
2023-03-16T23:10:29.662Z,8.73
2023-03-16T23:15:37.623Z,10.48
2023-03-16T23:20:38.436Z,8.80
2023-03-16T23:25:39.861Z,7.20
2023-03-16T23:30:41.007Z,9.13
2023-03-16T23:35:45.724Z,8.75
2023-03-16T23:40:46.502Z,6.95
2023-03-16T23:45:47.724Z,8.55
2023-03-16T23:50:51.414Z,6.55
2023-03-16T23:55:52.174Z,6.72
